sensor_id;sensor_type;location;lat;lon;timestamp;P1;durP1;ratioP1;P2;durP2;ratioP2
75025;SDS011;63591;50.080;8.286;2022-11-15T00:00:44;9.40;;;5.72;;
75025;SDS011;63591;50.080;8.286;2022-11-15T00:03:09;9.20;;;5.00;;
75025;SDS011;63591;50.080;8.286;2022-11-15T00:05:35;8.53;;;5.30;;
75025;SDS011;63591;50.080;8.286;2022-11-15T00:08:01;8.85;;;5.47;;
75025;SDS011;63591;50.080;8.286;2022-11-15T00:10:26;8.83;;;5.27;;
75025;SDS011;63591;50.080;8.286;2022-11-15T00:12:51;8.40;;;5.03;;
75025;SDS011;63591;50.080;8.286;2022-11-15T00:15:17;7.67;;;4.93;;
75025;SDS011;63591;50.080;8.286;2022-11-15T00:17:42;9.07;;;5.37;;
75025;SDS011;63591;50.080;8.286;2022-11-15T00:20:07;8.93;;;5.10;;
75025;SDS011;63591;50.080;8.286;2022-11-15T00:22:33;7.93;;;4.88;;
75025;SDS011;63591;50.080;8.286;2022-11-15T00:24:59;9.03;;;5.20;;
75025;SDS011;63591;50.080;8.286;2022-11-15T00:27:24;9.17;;;5.07;;
75025;SDS011;63591;50.080;8.286;2022-11-15T00:29:49;8.52;;;5.15;;
75025;SDS011;63591;50.080;8.286;2022-11-15T00:32:15;9.17;;;5.43;;
75025;SDS011;63591;50.080;8.286;2022-11-15T00:34:40;9.07;;;5.47;;
75025;SDS011;63591;50.080;8.286;2022-11-15T00:37:06;9.30;;;5.30;;
75025;SDS011;63591;50.080;8.286;2022-11-15T00:39:31;8.90;;;5.60;;
75025;SDS011;63591;50.080;8.286;2022-11-15T00:41:56;8.73;;;5.37;;
75025;SDS011;63591;50.080;8.286;2022-11-15T00:44:22;8.82;;;5.25;;
75025;SDS011;63591;50.080;8.286;2022-11-15T00:46:47;8.97;;;5.30;;
75025;SDS011;63591;50.080;8.286;2022-11-15T00:49:12;9.30;;;5.57;;
75025;SDS011;63591;50.080;8.286;2022-11-15T00:51:37;9.57;;;5.27;;
75025;SDS011;63591;50.080;8.286;2022-11-15T00:54:03;10.13;;;5.30;;
75025;SDS011;63591;50.080;8.286;2022-11-15T00:56:28;8.50;;;5.07;;
75025;SDS011;63591;50.080;8.286;2022-11-15T00:58:54;8.20;;;5.30;;
75025;SDS011;63591;50.080;8.286;2022-11-15T01:01:19;8.20;;;5.00;;
75025;SDS011;63591;50.080;8.286;2022-11-15T01:03:44;8.82;;;5.30;;
75025;SDS011;63591;50.080;8.286;2022-11-15T01:06:10;8.87;;;5.20;;
75025;SDS011;63591;50.080;8.286;2022-11-15T01:08:36;9.35;;;5.55;;
75025;SDS011;63591;50.080;8.286;2022-11-15T01:11:04;9.05;;;5.18;;
75025;SDS011;63591;50.080;8.286;2022-11-15T01:13:32;11.10;;;5.43;;
75025;SDS011;63591;50.080;8.286;2022-11-15T01:15:58;8.52;;;5.32;;
75025;SDS011;63591;50.080;8.286;2022-11-15T01:18:30;8.98;;;5.45;;
75025;SDS011;63591;50.080;8.286;2022-11-15T01:20:55;9.37;;;5.27;;
75025;SDS011;63591;50.080;8.286;2022-11-15T01:23:20;9.80;;;5.30;;
75025;SDS011;63591;50.080;8.286;2022-11-15T01:25:45;8.93;;;5.23;;
75025;SDS011;63591;50.080;8.286;2022-11-15T01:28:11;9.57;;;5.38;;
75025;SDS011;63591;50.080;8.286;2022-11-15T01:30:36;8.30;;;5.15;;
75025;SDS011;63591;50.080;8.286;2022-11-15T01:33:01;10.07;;;5.13;;
75025;SDS011;63591;50.080;8.286;2022-11-15T01:35:27;8.80;;;5.17;;
75025;SDS011;63591;50.080;8.286;2022-11-15T01:37:52;9.40;;;5.10;;
75025;SDS011;63591;50.080;8.286;2022-11-15T01:40:17;10.33;;;5.30;;
75025;SDS011;63591;50.080;8.286;2022-11-15T01:42:43;8.87;;;5.27;;
75025;SDS011;63591;50.080;8.286;2022-11-15T01:45:12;9.83;;;5.83;;
75025;SDS011;63591;50.080;8.286;2022-11-15T01:47:40;9.75;;;5.50;;
75025;SDS011;63591;50.080;8.286;2022-11-15T01:50:12;10.00;;;6.07;;
75025;SDS011;63591;50.080;8.286;2022-11-15T01:52:40;10.25;;;5.65;;
75025;SDS011;63591;50.080;8.286;2022-11-15T01:55:08;8.95;;;5.40;;
75025;SDS011;63591;50.080;8.286;2022-11-15T01:57:39;9.80;;;5.50;;
75025;SDS011;63591;50.080;8.286;2022-11-15T02:00:07;9.55;;;5.45;;
75025;SDS011;63591;50.080;8.286;2022-11-15T02:02:33;10.25;;;5.47;;
75025;SDS011;63591;50.080;8.286;2022-11-15T02:05:01;9.25;;;5.32;;
75025;SDS011;63591;50.080;8.286;2022-11-15T02:07:26;10.07;;;5.40;;
75025;SDS011;63591;50.080;8.286;2022-11-15T02:09:54;9.02;;;5.20;;
75025;SDS011;63591;50.080;8.286;2022-11-15T02:12:21;9.30;;;5.47;;
75025;SDS011;63591;50.080;8.286;2022-11-15T02:14:48;10.50;;;5.20;;
75025;SDS011;63591;50.080;8.286;2022-11-15T02:25:39;8.07;;;4.93;;
75025;SDS011;63591;50.080;8.286;2022-11-15T02:31:04;8.80;;;4.75;;
75025;SDS011;63591;50.080;8.286;2022-11-15T02:33:53;8.30;;;4.68;;
75025;SDS011;63591;50.080;8.286;2022-11-15T02:36:39;8.65;;;5.13;;
75025;SDS011;63591;50.080;8.286;2022-11-15T02:39:18;8.60;;;4.77;;
75025;SDS011;63591;50.080;8.286;2022-11-15T02:41:54;9.23;;;4.95;;
75025;SDS011;63591;50.080;8.286;2022-11-15T02:44:28;8.50;;;4.70;;
75025;SDS011;63591;50.080;8.286;2022-11-15T02:47:02;7.95;;;4.97;;
75025;SDS011;63591;50.080;8.286;2022-11-15T02:49:41;8.95;;;5.40;;
75025;SDS011;63591;50.080;8.286;2022-11-15T02:52:14;7.37;;;4.73;;
75025;SDS011;63591;50.080;8.286;2022-11-15T02:54:40;8.55;;;4.80;;
75025;SDS011;63591;50.080;8.286;2022-11-15T02:57:07;9.03;;;5.00;;
75025;SDS011;63591;50.080;8.286;2022-11-15T03:02:25;8.65;;;4.88;;
75025;SDS011;63591;50.080;8.286;2022-11-15T03:05:14;9.23;;;4.75;;
75025;SDS011;63591;50.080;8.286;2022-11-15T03:13:00;8.45;;;4.68;;
75025;SDS011;63591;50.080;8.286;2022-11-15T03:16:07;7.20;;;4.57;;
75025;SDS011;63591;50.080;8.286;2022-11-15T03:19:13;9.77;;;4.95;;
75025;SDS011;63591;50.080;8.286;2022-11-15T03:21:44;10.02;;;4.93;;
75025;SDS011;63591;50.080;8.286;2022-11-15T03:24:12;9.52;;;4.70;;
75025;SDS011;63591;50.080;8.286;2022-11-15T03:26:41;9.25;;;4.93;;
75025;SDS011;63591;50.080;8.286;2022-11-15T03:29:11;7.55;;;4.68;;
75025;SDS011;63591;50.080;8.286;2022-11-15T03:31:41;8.73;;;4.90;;
75025;SDS011;63591;50.080;8.286;2022-11-15T03:34:15;9.85;;;5.05;;
75025;SDS011;63591;50.080;8.286;2022-11-15T03:37:04;8.40;;;4.82;;
75025;SDS011;63591;50.080;8.286;2022-11-15T03:39:32;8.65;;;4.70;;
75025;SDS011;63591;50.080;8.286;2022-11-15T03:44:58;8.35;;;5.00;;
75025;SDS011;63591;50.080;8.286;2022-11-15T03:47:32;8.15;;;4.50;;
75025;SDS011;63591;50.080;8.286;2022-11-15T03:50:08;7.97;;;4.47;;
75025;SDS011;63591;50.080;8.286;2022-11-15T03:52:38;8.07;;;4.47;;
75025;SDS011;63591;50.080;8.286;2022-11-15T03:55:05;8.77;;;4.82;;
75025;SDS011;63591;50.080;8.286;2022-11-15T03:57:33;7.82;;;4.60;;
75025;SDS011;63591;50.080;8.286;2022-11-15T03:59:58;8.13;;;4.53;;
75025;SDS011;63591;50.080;8.286;2022-11-15T04:02:23;7.83;;;4.47;;
75025;SDS011;63591;50.080;8.286;2022-11-15T04:04:49;8.60;;;4.77;;
75025;SDS011;63591;50.080;8.286;2022-11-15T04:07:14;8.37;;;4.63;;
75025;SDS011;63591;50.080;8.286;2022-11-15T04:09:39;7.30;;;4.33;;
75025;SDS011;63591;50.080;8.286;2022-11-15T04:12:23;7.28;;;4.38;;
75025;SDS011;63591;50.080;8.286;2022-11-15T04:15:01;9.43;;;4.55;;
75025;SDS011;63591;50.080;8.286;2022-11-15T04:17:55;7.85;;;4.60;;
75025;SDS011;63591;50.080;8.286;2022-11-15T04:20:27;7.90;;;4.27;;
75025;SDS011;63591;50.080;8.286;2022-11-15T04:23:13;7.47;;;4.63;;
75025;SDS011;63591;50.080;8.286;2022-11-15T04:25:59;7.07;;;4.35;;
75025;SDS011;63591;50.080;8.286;2022-11-15T04:28:30;8.10;;;4.50;;
75025;SDS011;63591;50.080;8.286;2022-11-15T04:30:55;8.07;;;4.80;;
75025;SDS011;63591;50.080;8.286;2022-11-15T04:33:22;7.82;;;4.72;;
75025;SDS011;63591;50.080;8.286;2022-11-15T04:35:48;8.25;;;4.70;;
75025;SDS011;63591;50.080;8.286;2022-11-15T04:38:32;7.40;;;4.03;;
75025;SDS011;63591;50.080;8.286;2022-11-15T04:40:58;7.28;;;4.20;;
75025;SDS011;63591;50.080;8.286;2022-11-15T04:43:23;8.43;;;4.70;;
75025;SDS011;63591;50.080;8.286;2022-11-15T04:45:49;7.73;;;4.50;;
75025;SDS011;63591;50.080;8.286;2022-11-15T04:48:14;7.93;;;4.37;;
75025;SDS011;63591;50.080;8.286;2022-11-15T04:50:39;8.03;;;4.83;;
75025;SDS011;63591;50.080;8.286;2022-11-15T04:53:04;7.83;;;4.57;;
75025;SDS011;63591;50.080;8.286;2022-11-15T04:55:30;7.22;;;4.60;;
75025;SDS011;63591;50.080;8.286;2022-11-15T04:57:59;6.40;;;4.20;;
75025;SDS011;63591;50.080;8.286;2022-11-15T05:00:26;6.70;;;4.30;;
75025;SDS011;63591;50.080;8.286;2022-11-15T05:02:52;7.05;;;4.47;;
75025;SDS011;63591;50.080;8.286;2022-11-15T05:05:36;7.40;;;4.32;;
75025;SDS011;63591;50.080;8.286;2022-11-15T05:08:02;7.87;;;4.63;;
75025;SDS011;63591;50.080;8.286;2022-11-15T05:10:27;7.93;;;4.90;;
75025;SDS011;63591;50.080;8.286;2022-11-15T05:12:53;9.05;;;4.63;;
75025;SDS011;63591;50.080;8.286;2022-11-15T05:15:18;8.57;;;4.95;;
75025;SDS011;63591;50.080;8.286;2022-11-15T05:17:43;7.07;;;4.50;;
75025;SDS011;63591;50.080;8.286;2022-11-15T05:20:09;7.33;;;4.67;;
75025;SDS011;63591;50.080;8.286;2022-11-15T05:22:35;7.55;;;4.85;;
75025;SDS011;63591;50.080;8.286;2022-11-15T05:25:00;10.10;;;4.77;;
75025;SDS011;63591;50.080;8.286;2022-11-15T05:27:25;8.17;;;4.70;;
75025;SDS011;63591;50.080;8.286;2022-11-15T05:29:51;7.40;;;4.70;;
75025;SDS011;63591;50.080;8.286;2022-11-15T05:32:17;7.30;;;4.55;;
75025;SDS011;63591;50.080;8.286;2022-11-15T05:34:43;8.13;;;5.23;;
75025;SDS011;63591;50.080;8.286;2022-11-15T05:37:09;8.05;;;4.95;;
75025;SDS011;63591;50.080;8.286;2022-11-15T05:39:34;7.75;;;4.85;;
75025;SDS011;63591;50.080;8.286;2022-11-15T05:42:01;7.83;;;5.10;;
75025;SDS011;63591;50.080;8.286;2022-11-15T05:44:34;7.65;;;5.03;;
75025;SDS011;63591;50.080;8.286;2022-11-15T05:47:01;8.27;;;5.10;;
75025;SDS011;63591;50.080;8.286;2022-11-15T05:49:30;8.40;;;5.20;;
75025;SDS011;63591;50.080;8.286;2022-11-15T05:51:57;7.22;;;4.78;;
75025;SDS011;63591;50.080;8.286;2022-11-15T05:54:23;7.85;;;5.03;;
75025;SDS011;63591;50.080;8.286;2022-11-15T05:56:50;7.00;;;5.00;;
75025;SDS011;63591;50.080;8.286;2022-11-15T05:59:16;9.40;;;5.60;;
75025;SDS011;63591;50.080;8.286;2022-11-15T06:01:42;7.88;;;5.28;;
75025;SDS011;63591;50.080;8.286;2022-11-15T06:04:07;7.70;;;5.10;;
75025;SDS011;63591;50.080;8.286;2022-11-15T06:06:33;9.40;;;5.27;;
75025;SDS011;63591;50.080;8.286;2022-11-15T06:08:58;9.43;;;5.40;;
75025;SDS011;63591;50.080;8.286;2022-11-15T06:11:23;7.90;;;4.97;;
75025;SDS011;63591;50.080;8.286;2022-11-15T06:13:49;7.65;;;5.03;;
75025;SDS011;63591;50.080;8.286;2022-11-15T06:16:14;8.60;;;5.25;;
75025;SDS011;63591;50.080;8.286;2022-11-15T06:18:39;7.90;;;4.80;;
75025;SDS011;63591;50.080;8.286;2022-11-15T06:21:05;8.73;;;5.20;;
75025;SDS011;63591;50.080;8.286;2022-11-15T06:23:31;8.60;;;5.00;;
75025;SDS011;63591;50.080;8.286;2022-11-15T06:25:58;8.98;;;5.00;;
75025;SDS011;63591;50.080;8.286;2022-11-15T06:28:24;7.50;;;5.15;;
75025;SDS011;63591;50.080;8.286;2022-11-15T06:30:49;8.57;;;4.90;;
75025;SDS011;63591;50.080;8.286;2022-11-15T06:33:15;7.63;;;4.90;;
75025;SDS011;63591;50.080;8.286;2022-11-15T06:35:40;8.63;;;4.90;;
75025;SDS011;63591;50.080;8.286;2022-11-15T06:38:07;7.73;;;5.37;;
75025;SDS011;63591;50.080;8.286;2022-11-15T06:40:34;7.03;;;4.68;;
75025;SDS011;63591;50.080;8.286;2022-11-15T06:43:00;8.88;;;5.40;;
75025;SDS011;63591;50.080;8.286;2022-11-15T06:45:26;7.63;;;4.90;;
75025;SDS011;63591;50.080;8.286;2022-11-15T06:47:52;8.60;;;5.10;;
75025;SDS011;63591;50.080;8.286;2022-11-15T06:50:17;9.00;;;5.82;;
75025;SDS011;63591;50.080;8.286;2022-11-15T06:52:43;9.73;;;5.73;;
75025;SDS011;63591;50.080;8.286;2022-11-15T06:55:09;8.40;;;5.83;;
75025;SDS011;63591;50.080;8.286;2022-11-15T06:57:34;12.75;;;5.90;;
75025;SDS011;63591;50.080;8.286;2022-11-15T07:00:00;9.45;;;5.90;;
75025;SDS011;63591;50.080;8.286;2022-11-15T07:02:26;9.93;;;6.40;;
75025;SDS011;63591;50.080;8.286;2022-11-15T07:04:51;9.87;;;6.03;;
75025;SDS011;63591;50.080;8.286;2022-11-15T07:07:16;10.20;;;5.90;;
75025;SDS011;63591;50.080;8.286;2022-11-15T07:09:42;10.20;;;6.23;;
75025;SDS011;63591;50.080;8.286;2022-11-15T07:12:07;9.77;;;6.45;;
75025;SDS011;63591;50.080;8.286;2022-11-15T07:14:33;10.17;;;6.87;;
75025;SDS011;63591;50.080;8.286;2022-11-15T07:16:58;16.83;;;8.23;;
75025;SDS011;63591;50.080;8.286;2022-11-15T07:19:23;12.77;;;7.77;;
75025;SDS011;63591;50.080;8.286;2022-11-15T07:21:49;13.60;;;7.53;;
75025;SDS011;63591;50.080;8.286;2022-11-15T07:24:14;14.63;;;7.90;;
75025;SDS011;63591;50.080;8.286;2022-11-15T07:26:39;14.53;;;7.93;;
75025;SDS011;63591;50.080;8.286;2022-11-15T07:29:04;11.83;;;7.80;;
75025;SDS011;63591;50.080;8.286;2022-11-15T07:31:30;13.23;;;6.80;;
75025;SDS011;63591;50.080;8.286;2022-11-15T07:33:55;11.80;;;7.10;;
75025;SDS011;63591;50.080;8.286;2022-11-15T07:36:21;12.87;;;6.87;;
75025;SDS011;63591;50.080;8.286;2022-11-15T07:38:46;10.47;;;6.20;;
75025;SDS011;63591;50.080;8.286;2022-11-15T07:41:11;11.03;;;6.70;;
75025;SDS011;63591;50.080;8.286;2022-11-15T07:43:37;10.82;;;6.38;;
75025;SDS011;63591;50.080;8.286;2022-11-15T07:46:06;10.57;;;6.67;;
75025;SDS011;63591;50.080;8.286;2022-11-15T07:48:34;9.90;;;6.60;;
75025;SDS011;63591;50.080;8.286;2022-11-15T07:51:00;11.30;;;6.10;;
75025;SDS011;63591;50.080;8.286;2022-11-15T07:53:25;12.20;;;6.43;;
75025;SDS011;63591;50.080;8.286;2022-11-15T07:55:50;9.70;;;5.57;;
75025;SDS011;63591;50.080;8.286;2022-11-15T07:58:15;12.68;;;6.25;;
75025;SDS011;63591;50.080;8.286;2022-11-15T08:00:41;10.70;;;5.80;;
75025;SDS011;63591;50.080;8.286;2022-11-15T08:03:07;8.73;;;5.70;;
75025;SDS011;63591;50.080;8.286;2022-11-15T08:05:35;9.25;;;5.68;;
75025;SDS011;63591;50.080;8.286;2022-11-15T08:08:01;9.02;;;5.50;;
75025;SDS011;63591;50.080;8.286;2022-11-15T08:10:27;9.32;;;5.70;;
75025;SDS011;63591;50.080;8.286;2022-11-15T08:13:26;9.25;;;5.50;;
75025;SDS011;63591;50.080;8.286;2022-11-15T08:15:46;10.43;;;5.55;;
75025;SDS011;63591;50.080;8.286;2022-11-15T08:18:12;9.68;;;5.53;;
75025;SDS011;63591;50.080;8.286;2022-11-15T08:20:39;9.53;;;5.00;;
75025;SDS011;63591;50.080;8.286;2022-11-15T08:23:06;8.50;;;4.80;;
75025;SDS011;63591;50.080;8.286;2022-11-15T08:25:33;9.50;;;5.47;;
75025;SDS011;63591;50.080;8.286;2022-11-15T08:28:00;7.55;;;4.68;;
75025;SDS011;63591;50.080;8.286;2022-11-15T08:30:27;10.07;;;4.93;;
75025;SDS011;63591;50.080;8.286;2022-11-15T08:32:53;7.70;;;4.70;;
75025;SDS011;63591;50.080;8.286;2022-11-15T08:35:22;8.70;;;4.90;;
75025;SDS011;63591;50.080;8.286;2022-11-15T08:37:48;8.35;;;4.95;;
75025;SDS011;63591;50.080;8.286;2022-11-15T08:40:14;8.97;;;5.10;;
75025;SDS011;63591;50.080;8.286;2022-11-15T08:42:39;7.43;;;4.60;;
75025;SDS011;63591;50.080;8.286;2022-11-15T08:45:05;8.82;;;5.07;;
75025;SDS011;63591;50.080;8.286;2022-11-15T08:47:31;8.40;;;5.10;;
75025;SDS011;63591;50.080;8.286;2022-11-15T08:49:56;7.95;;;5.07;;
75025;SDS011;63591;50.080;8.286;2022-11-15T08:52:22;8.52;;;4.80;;
75025;SDS011;63591;50.080;8.286;2022-11-15T08:54:47;8.13;;;4.90;;
75025;SDS011;63591;50.080;8.286;2022-11-15T08:57:13;8.60;;;5.03;;
75025;SDS011;63591;50.080;8.286;2022-11-15T08:59:38;8.00;;;4.60;;
75025;SDS011;63591;50.080;8.286;2022-11-15T09:02:04;8.20;;;5.07;;
75025;SDS011;63591;50.080;8.286;2022-11-15T09:04:30;8.02;;;4.80;;
75025;SDS011;63591;50.080;8.286;2022-11-15T09:06:55;8.65;;;4.97;;
75025;SDS011;63591;50.080;8.286;2022-11-15T09:09:21;9.18;;;5.00;;
75025;SDS011;63591;50.080;8.286;2022-11-15T09:11:46;7.37;;;4.33;;
75025;SDS011;63591;50.080;8.286;2022-11-15T09:14:12;8.23;;;5.20;;
75025;SDS011;63591;50.080;8.286;2022-11-15T09:16:38;8.23;;;4.70;;
75025;SDS011;63591;50.080;8.286;2022-11-15T09:19:03;7.90;;;4.63;;
75025;SDS011;63591;50.080;8.286;2022-11-15T09:21:29;10.00;;;5.20;;
75025;SDS011;63591;50.080;8.286;2022-11-15T09:23:55;7.30;;;4.40;;
75025;SDS011;63591;50.080;8.286;2022-11-15T09:26:20;9.63;;;5.03;;
75025;SDS011;63591;50.080;8.286;2022-11-15T09:28:45;8.53;;;4.73;;
75025;SDS011;63591;50.080;8.286;2022-11-15T09:31:11;8.33;;;4.80;;
75025;SDS011;63591;50.080;8.286;2022-11-15T09:33:36;10.43;;;4.70;;
75025;SDS011;63591;50.080;8.286;2022-11-15T09:36:05;8.00;;;4.53;;
75025;SDS011;63591;50.080;8.286;2022-11-15T09:38:32;8.35;;;4.50;;
75025;SDS011;63591;50.080;8.286;2022-11-15T09:41:47;9.40;;;5.00;;
75025;SDS011;63591;50.080;8.286;2022-11-15T09:43:51;8.75;;;4.65;;
75025;SDS011;63591;50.080;8.286;2022-11-15T09:48:59;7.13;;;4.38;;
75025;SDS011;63591;50.080;8.286;2022-11-15T09:51:33;8.13;;;4.85;;
75025;SDS011;63591;50.080;8.286;2022-11-15T09:56:35;8.30;;;4.70;;
75025;SDS011;63591;50.080;8.286;2022-11-15T09:59:24;7.60;;;4.40;;
75025;SDS011;63591;50.080;8.286;2022-11-15T10:04:32;7.43;;;4.68;;
75025;SDS011;63591;50.080;8.286;2022-11-15T10:07:02;8.70;;;4.90;;
75025;SDS011;63591;50.080;8.286;2022-11-15T10:09:55;8.93;;;4.80;;
75025;SDS011;63591;50.080;8.286;2022-11-15T10:12:29;9.10;;;4.95;;
75025;SDS011;63591;50.080;8.286;2022-11-15T10:15:00;7.63;;;4.43;;
75025;SDS011;63591;50.080;8.286;2022-11-15T10:20:23;9.00;;;4.50;;
75025;SDS011;63591;50.080;8.286;2022-11-15T10:22:53;8.85;;;4.50;;
75025;SDS011;63591;50.080;8.286;2022-11-15T10:25:22;8.50;;;4.55;;
75025;SDS011;63591;50.080;8.286;2022-11-15T10:28:01;8.07;;;4.55;;
75025;SDS011;63591;50.080;8.286;2022-11-15T10:30:39;8.10;;;4.47;;
75025;SDS011;63591;50.080;8.286;2022-11-15T10:33:10;7.68;;;4.45;;
75025;SDS011;63591;50.080;8.286;2022-11-15T10:35:36;9.05;;;4.70;;
75025;SDS011;63591;50.080;8.286;2022-11-15T10:38:05;7.97;;;4.70;;
75025;SDS011;63591;50.080;8.286;2022-11-15T10:40:32;8.95;;;4.97;;
75025;SDS011;63591;50.080;8.286;2022-11-15T10:43:31;7.57;;;4.70;;
75025;SDS011;63591;50.080;8.286;2022-11-15T10:45:54;9.50;;;4.80;;
75025;SDS011;63591;50.080;8.286;2022-11-15T10:48:20;9.30;;;4.90;;
75025;SDS011;63591;50.080;8.286;2022-11-15T10:50:47;8.27;;;5.10;;
75025;SDS011;63591;50.080;8.286;2022-11-15T10:53:24;9.20;;;5.40;;
75025;SDS011;63591;50.080;8.286;2022-11-15T10:55:56;9.93;;;5.00;;
75025;SDS011;63591;50.080;8.286;2022-11-15T10:58:35;8.73;;;5.13;;
75025;SDS011;63591;50.080;8.286;2022-11-15T11:01:11;8.38;;;5.43;;
75025;SDS011;63591;50.080;8.286;2022-11-15T11:06:52;8.95;;;5.30;;
75025;SDS011;63591;50.080;8.286;2022-11-15T11:09:35;7.55;;;5.07;;
75025;SDS011;63591;50.080;8.286;2022-11-15T11:12:03;8.77;;;4.82;;
75025;SDS011;63591;50.080;8.286;2022-11-15T11:14:34;9.07;;;5.20;;
75025;SDS011;63591;50.080;8.286;2022-11-15T11:22:26;9.57;;;5.37;;
75025;SDS011;63591;50.080;8.286;2022-11-15T11:28:33;9.45;;;5.13;;
75025;SDS011;63591;50.080;8.286;2022-11-15T11:31:19;8.40;;;4.80;;
75025;SDS011;63591;50.080;8.286;2022-11-15T11:37:03;8.40;;;4.87;;
75025;SDS011;63591;50.080;8.286;2022-11-15T11:42:16;7.80;;;5.10;;
75025;SDS011;63591;50.080;8.286;2022-11-15T11:47:39;8.90;;;5.30;;
75025;SDS011;63591;50.080;8.286;2022-11-15T11:50:18;9.88;;;5.60;;
75025;SDS011;63591;50.080;8.286;2022-11-15T11:53:04;9.52;;;5.75;;
75025;SDS011;63591;50.080;8.286;2022-11-15T11:55:46;9.43;;;5.57;;
75025;SDS011;63591;50.080;8.286;2022-11-15T11:58:33;8.75;;;4.93;;
75025;SDS011;63591;50.080;8.286;2022-11-15T12:01:07;10.00;;;5.47;;
75025;SDS011;63591;50.080;8.286;2022-11-15T12:03:46;9.38;;;5.18;;
75025;SDS011;63591;50.080;8.286;2022-11-15T12:09:21;9.13;;;4.85;;
75025;SDS011;63591;50.080;8.286;2022-11-15T12:11:58;8.13;;;4.93;;
75025;SDS011;63591;50.080;8.286;2022-11-15T12:17:12;7.85;;;4.97;;
75025;SDS011;63591;50.080;8.286;2022-11-15T12:19:39;8.82;;;4.93;;
75025;SDS011;63591;50.080;8.286;2022-11-15T12:22:21;8.65;;;5.35;;
75025;SDS011;63591;50.080;8.286;2022-11-15T12:24:56;11.75;;;5.05;;
75025;SDS011;63591;50.080;8.286;2022-11-15T12:27:31;8.80;;;5.00;;
75025;SDS011;63591;50.080;8.286;2022-11-15T12:30:02;9.70;;;4.47;;
75025;SDS011;63591;50.080;8.286;2022-11-15T12:32:34;8.27;;;4.30;;
75025;SDS011;63591;50.080;8.286;2022-11-15T12:35:03;8.60;;;4.60;;
75025;SDS011;63591;50.080;8.286;2022-11-15T12:40:17;7.90;;;3.95;;
75025;SDS011;63591;50.080;8.286;2022-11-15T12:43:37;7.28;;;4.35;;
75025;SDS011;63591;50.080;8.286;2022-11-15T12:48:56;8.85;;;4.60;;
75025;SDS011;63591;50.080;8.286;2022-11-15T12:51:22;8.15;;;4.63;;
75025;SDS011;63591;50.080;8.286;2022-11-15T12:54:48;7.78;;;3.95;;
75025;SDS011;63591;50.080;8.286;2022-11-15T13:02:26;7.75;;;4.05;;
75025;SDS011;63591;50.080;8.286;2022-11-15T13:04:55;8.32;;;4.50;;
75025;SDS011;63591;50.080;8.286;2022-11-15T13:17:47;6.87;;;4.00;;
75025;SDS011;63591;50.080;8.286;2022-11-15T13:28:00;7.03;;;3.97;;
75025;SDS011;63591;50.080;8.286;2022-11-15T13:30:28;8.10;;;4.30;;
75025;SDS011;63591;50.080;8.286;2022-11-15T13:32:55;7.93;;;3.83;;
75025;SDS011;63591;50.080;8.286;2022-11-15T13:35:26;6.90;;;4.00;;
75025;SDS011;63591;50.080;8.286;2022-11-15T13:37:54;7.47;;;3.92;;
75025;SDS011;63591;50.080;8.286;2022-11-15T13:40:26;7.00;;;3.85;;
75025;SDS011;63591;50.080;8.286;2022-11-15T13:42:59;6.77;;;3.93;;
75025;SDS011;63591;50.080;8.286;2022-11-15T13:45:24;7.68;;;4.00;;
75025;SDS011;63591;50.080;8.286;2022-11-15T13:47:55;8.07;;;3.87;;
75025;SDS011;63591;50.080;8.286;2022-11-15T13:50:32;6.90;;;3.83;;
75025;SDS011;63591;50.080;8.286;2022-11-15T13:53:00;6.53;;;3.85;;
75025;SDS011;63591;50.080;8.286;2022-11-15T13:55:27;6.72;;;3.97;;
75025;SDS011;63591;50.080;8.286;2022-11-15T13:57:56;7.82;;;3.80;;
75025;SDS011;63591;50.080;8.286;2022-11-15T14:06:06;7.25;;;3.53;;
75025;SDS011;63591;50.080;8.286;2022-11-15T14:08:37;6.22;;;3.35;;
75025;SDS011;63591;50.080;8.286;2022-11-15T14:11:18;7.47;;;3.28;;
75025;SDS011;63591;50.080;8.286;2022-11-15T14:14:03;7.27;;;3.10;;
75025;SDS011;63591;50.080;8.286;2022-11-15T14:16:37;7.68;;;3.47;;
75025;SDS011;63591;50.080;8.286;2022-11-15T14:19:04;7.28;;;3.67;;
75025;SDS011;63591;50.080;8.286;2022-11-15T14:21:31;7.30;;;3.80;;
75025;SDS011;63591;50.080;8.286;2022-11-15T14:26:41;5.93;;;3.47;;
75025;SDS011;63591;50.080;8.286;2022-11-15T14:29:25;6.95;;;3.80;;
75025;SDS011;63591;50.080;8.286;2022-11-15T14:31:53;7.43;;;3.63;;
75025;SDS011;63591;50.080;8.286;2022-11-15T14:34:19;7.75;;;3.60;;
75025;SDS011;63591;50.080;8.286;2022-11-15T14:36:47;5.72;;;3.35;;
75025;SDS011;63591;50.080;8.286;2022-11-15T14:39:12;7.00;;;3.58;;
75025;SDS011;63591;50.080;8.286;2022-11-15T14:41:38;7.70;;;3.30;;
75025;SDS011;63591;50.080;8.286;2022-11-15T14:44:03;5.97;;;3.43;;
75025;SDS011;63591;50.080;8.286;2022-11-15T14:46:30;6.65;;;3.55;;
75025;SDS011;63591;50.080;8.286;2022-11-15T14:48:56;6.67;;;3.50;;
75025;SDS011;63591;50.080;8.286;2022-11-15T14:51:21;6.20;;;3.67;;
75025;SDS011;63591;50.080;8.286;2022-11-15T14:53:47;7.00;;;3.50;;
75025;SDS011;63591;50.080;8.286;2022-11-15T14:56:13;6.78;;;3.22;;
75025;SDS011;63591;50.080;8.286;2022-11-15T14:58:41;8.20;;;3.83;;
75025;SDS011;63591;50.080;8.286;2022-11-15T15:01:24;7.60;;;3.57;;
75025;SDS011;63591;50.080;8.286;2022-11-15T15:03:51;6.22;;;3.42;;
75025;SDS011;63591;50.080;8.286;2022-11-15T15:06:17;7.00;;;3.80;;
75025;SDS011;63591;50.080;8.286;2022-11-15T15:08:43;8.45;;;3.95;;
75025;SDS011;63591;50.080;8.286;2022-11-15T15:11:27;8.63;;;4.20;;
75025;SDS011;63591;50.080;8.286;2022-11-15T15:13:54;9.88;;;4.10;;
75025;SDS011;63591;50.080;8.286;2022-11-15T15:16:22;6.75;;;3.97;;
75025;SDS011;63591;50.080;8.286;2022-11-15T15:18:49;6.68;;;3.90;;
75025;SDS011;63591;50.080;8.286;2022-11-15T15:21:18;7.60;;;4.10;;
75025;SDS011;63591;50.080;8.286;2022-11-15T15:23:48;8.63;;;4.18;;
75025;SDS011;63591;50.080;8.286;2022-11-15T15:26:13;7.95;;;4.00;;
75025;SDS011;63591;50.080;8.286;2022-11-15T15:28:39;8.00;;;4.03;;
75025;SDS011;63591;50.080;8.286;2022-11-15T15:31:05;7.35;;;3.85;;
75025;SDS011;63591;50.080;8.286;2022-11-15T15:33:30;8.47;;;3.73;;
75025;SDS011;63591;50.080;8.286;2022-11-15T15:35:56;7.57;;;3.55;;
75025;SDS011;63591;50.080;8.286;2022-11-15T15:38:21;6.80;;;3.50;;
75025;SDS011;63591;50.080;8.286;2022-11-15T15:40:47;6.63;;;3.30;;
75025;SDS011;63591;50.080;8.286;2022-11-15T15:43:13;6.75;;;3.47;;
75025;SDS011;63591;50.080;8.286;2022-11-15T15:45:38;6.72;;;3.08;;
75025;SDS011;63591;50.080;8.286;2022-11-15T15:48:05;7.07;;;3.40;;
75025;SDS011;63591;50.080;8.286;2022-11-15T15:50:34;6.03;;;3.40;;
75025;SDS011;63591;50.080;8.286;2022-11-15T15:53:01;5.63;;;3.20;;
75025;SDS011;63591;50.080;8.286;2022-11-15T15:55:28;6.75;;;3.35;;
75025;SDS011;63591;50.080;8.286;2022-11-15T15:57:53;5.83;;;3.13;;
75025;SDS011;63591;50.080;8.286;2022-11-15T16:00:19;6.20;;;3.13;;
75025;SDS011;63591;50.080;8.286;2022-11-15T16:02:47;5.75;;;3.00;;
75025;SDS011;63591;50.080;8.286;2022-11-15T16:05:13;5.73;;;3.20;;
75025;SDS011;63591;50.080;8.286;2022-11-15T16:07:38;5.67;;;3.10;;
75025;SDS011;63591;50.080;8.286;2022-11-15T16:12:47;6.43;;;3.15;;
75025;SDS011;63591;50.080;8.286;2022-11-15T16:15:13;6.72;;;3.20;;
75025;SDS011;63591;50.080;8.286;2022-11-15T16:17:39;5.88;;;2.90;;
75025;SDS011;63591;50.080;8.286;2022-11-15T16:20:15;5.90;;;2.93;;
75025;SDS011;63591;50.080;8.286;2022-11-15T16:22:58;6.28;;;2.83;;
75025;SDS011;63591;50.080;8.286;2022-11-15T16:25:24;5.75;;;3.17;;
75025;SDS011;63591;50.080;8.286;2022-11-15T16:27:50;6.43;;;2.88;;
75025;SDS011;63591;50.080;8.286;2022-11-15T16:30:17;5.43;;;2.90;;
75025;SDS011;63591;50.080;8.286;2022-11-15T16:32:44;6.25;;;3.15;;
75025;SDS011;63591;50.080;8.286;2022-11-15T16:35:12;5.57;;;2.83;;
75025;SDS011;63591;50.080;8.286;2022-11-15T16:37:39;6.28;;;2.90;;